Time;durP1;ratioP1;P1;durP2;ratioP2;P2;SDS_P1;SDS_P2;PMS_P1;PMS_P2;Temp;Humidity;BMP_temperature;BMP_pressure;BME280_temperature;BME280_humidity;BME280_pressure;Samples;Min_cycle;Max_cycle;Signal;HPM_P1;HPM_P2
2022/08/01 00:00:13;;;;;;;4.50;2.00;;;;;18.56;97058.40;;;;111152;1247;41261;-67
2022/08/01 00:03:04;;;;;;;4.10;1.80;;;;;18.60;97062.20;;;;111062;1247;41614;-69
2022/08/01 00:05:34;;;;;;;3.80;1.90;;;;;18.56;97061.80;;;;111097;1247;41725;-68
2022/08/01 00:08:04;;;;;;;2.90;1.70;;;;;18.60;97057.40;;;;110948;1250;41145;-68
2022/08/01 00:10:34;;;;;;;2.90;1.70;;;;;18.60;97056.00;;;;111087;1246;41599;-71
2022/08/01 00:13:04;;;;;;;5.00;2.20;;;;;18.60;97056.40;;;;111155;1248;41401;-68
2022/08/01 00:15:34;;;;;;;3.90;2.10;;;;;18.60;97061.40;;;;111105;1247;41146;-68
2022/08/01 00:18:05;;;;;;;4.90;2.00;;;;;18.50;97062.60;;;;111135;1248;41943;-68
2022/08/01 00:20:37;;;;;;;5.40;1.80;;;;;18.50;97062.00;;;;111114;1247;41150;-69
2022/08/01 00:23:08;;;;;;;3.10;1.80;;;;;18.50;97064.00;;;;111121;1248;42413;-69
2022/08/01 00:25:40;;;;;;;3.10;1.70;;;;;18.50;97061.80;;;;111048;1250;41149;-69
2022/08/01 00:28:10;;;;;;;2.90;1.60;;;;;18.50;97060.80;;;;111107;1248;41273;-70
2022/08/01 00:30:40;;;;;;;3.30;1.70;;;;;18.50;97064.60;;;;111057;1247;41133;-68
2022/08/01 00:33:12;;;;;;;3.00;1.60;;;;;18.50;97063.40;;;;111049;1250;41259;-69
2022/08/01 00:35:42;;;;;;;3.80;1.80;;;;;18.50;97058.40;;;;111071;1248;41356;-69
2022/08/01 00:38:13;;;;;;;3.00;1.70;;;;;18.50;97056.80;;;;111050;1249;41112;-68
2022/08/01 00:40:46;;;;;;;3.40;1.80;;;;;18.50;97054.80;;;;111133;1247;42636;-69
2022/08/01 00:43:16;;;;;;;4.10;1.90;;;;;18.50;97055.00;;;;111063;1248;41148;-69
2022/08/01 00:45:46;;;;;;;4.00;1.80;;;;;18.50;97054.20;;;;111119;1247;41253;-68
2022/08/01 00:48:16;;;;;;;3.60;1.80;;;;;18.50;97047.60;;;;111164;1247;42371;-67
2022/08/01 00:50:46;;;;;;;4.00;1.90;;;;;18.40;97047.80;;;;111136;1248;41610;-68
2022/08/01 00:53:16;;;;;;;;;;;;;18.40;97048.60;;;;111169;1248;41152;-69
2022/08/01 00:55:48;;;;;;;3.00;1.70;;;;;18.40;97046.40;;;;111168;1248;42555;-69
2022/08/01 00:58:20;;;;;;;4.00;1.60;;;;;18.40;97043.00;;;;111084;1248;41251;-69
2022/08/01 01:00:50;;;;;;;3.30;1.70;;;;;18.40;97044.00;;;;111128;1249;41143;-69
2022/08/01 01:03:23;;;;;;;4.60;1.90;;;;;18.40;97047.20;;;;111122;1247;41264;-69
2022/08/01 01:06:31;;;;;;;4.50;2.00;;;;;18.40;97042.80;;;;111070;1248;41261;-70
2022/08/01 01:09:22;;;;;;;3.20;1.80;;;;;18.40;97040.00;;;;111089;1247;41149;-69
2022/08/01 01:12:07;;;;;;;4.30;2.00;;;;;18.40;97038.20;;;;111008;1250;41127;-69
2022/08/01 01:14:46;;;;;;;4.90;2.10;;;;;18.40;97043.00;;;;111123;1247;41141;-70
2022/08/01 01:17:21;;;;;;;4.30;1.90;;;;;18.40;97042.40;;;;110621;1247;662487;-71
2022/08/01 01:20:14;;;;;;;3.30;1.70;;;;;18.38;97043.00;;;;111415;1248;41719;-68
2022/08/01 01:23:04;;;;;;;4.30;2.00;;;;;18.36;97043.60;;;;111189;1249;41231;-67
2022/08/01 01:26:09;;;;;;;4.90;2.20;;;;;18.40;97049.00;;;;111157;1248;41140;-67
2022/08/01 01:28:57;;;;;;;4.40;2.00;;;;;18.40;97050.60;;;;111238;1248;41174;-70
2022/08/01 01:31:29;;;;;;;5.60;2.50;;;;;18.40;97054.40;;;;111192;1247;41153;-68
2022/08/01 01:34:00;;;;;;;4.60;2.10;;;;;18.38;97052.60;;;;111179;1247;41137;-69
2022/08/01 01:36:33;;;;;;;4.00;2.10;;;;;18.36;97052.20;;;;111169;1249;42279;-71
2022/08/01 01:39:06;;;;;;;5.60;2.70;;;;;18.30;97049.80;;;;111202;1250;41721;-71
2022/08/01 01:41:39;;;;;;;6.50;2.50;;;;;18.30;97053.20;;;;111348;1247;40733;-71
2022/08/01 01:44:11;;;;;;;4.90;2.20;;;;;18.30;97053.20;;;;111197;1247;41229;-70
2022/08/01 01:46:42;;;;;;;4.90;2.30;;;;;18.20;97054.40;;;;111220;1249;41334;-70
2022/08/01 01:49:12;;;;;;;4.70;2.10;;;;;18.20;97046.40;;;;111257;1247;41190;-69
2022/08/01 01:51:42;;;;;;;;;;;;;18.20;97049.60;;;;111212;1249;41252;-70
2022/08/01 01:54:23;;;;;;;4.70;2.00;;;;;18.20;97049.00;;;;111166;1248;42832;-68
2022/08/01 01:56:58;;;;;;;5.30;2.00;;;;;18.20;97050.00;;;;111174;1248;41717;-71
2022/08/01 01:59:31;;;;;;;4.00;2.00;;;;;18.14;97045.80;;;;111027;1249;41984;-71
2022/08/01 02:02:05;;;;;;;4.40;1.80;;;;;18.10;97044.20;;;;111195;1248;42183;-70
2022/08/01 02:04:40;;;;;;;2.40;1.50;;;;;18.10;97044.20;;;;111130;1248;41309;-69
2022/08/01 02:07:14;;;;;;;3.70;1.70;;;;;18.10;97040.60;;;;111131;1248;41153;-70
2022/08/01 02:09:47;;;;;;;2.30;1.40;;;;;18.10;97040.60;;;;111122;1249;42717;-72
2022/08/01 02:12:19;;;;;;;2.70;1.50;;;;;18.10;97038.60;;;;111341;1248;41155;-71
2022/08/01 02:14:50;;;;;;;1.30;1.20;;;;;18.10;97039.60;;;;111194;1248;41127;-68
2022/08/01 02:17:22;;;;;;;3.10;1.50;;;;;18.10;97037.60;;;;110998;1247;41159;-71
2022/08/01 02:19:53;;;;;;;19.00;1.80;;;;;18.10;97037.40;;;;111107;1248;41721;-70
2022/08/01 02:22:34;;;;;;;5.10;1.70;;;;;17.90;97039.20;;;;111188;1248;41261;-69
2022/08/01 02:25:39;;;;;;;3.50;1.40;;;;;17.84;97041.00;;;;111197;1249;41604;-71
2022/08/01 02:28:56;;;;;;;4.00;1.40;;;;;17.70;97041.20;;;;111272;1247;40914;-69
2022/08/01 02:31:29;;;;;;;4.00;1.50;;;;;17.70;97041.40;;;;111180;1248;41257;-69
2022/08/01 02:34:07;;;;;;;2.20;1.40;;;;;17.70;97035.40;;;;111256;1248;41596;-67
2022/08/01 02:36:39;;;;;;;2.50;1.50;;;;;17.76;97039.40;;;;111107;1249;41251;-69
2022/08/01 02:39:13;;;;;;;2.50;1.40;;;;;17.80;97039.60;;;;111228;1248;41592;-68
2022/08/01 02:41:47;;;;;;;2.60;1.60;;;;;17.80;97037.80;;;;111261;1248;41734;-69
2022/08/01 02:44:38;;;;;;;3.20;1.60;;;;;17.80;97035.20;;;;111182;1249;41134;-68
2022/08/01 02:47:10;;;;;;;3.20;1.60;;;;;17.80;97036.60;;;;111283;1248;42275;-70
2022/08/01 02:49:44;;;;;;;3.30;1.60;;;;;17.80;97031.00;;;;111223;1248;41247;-67
2022/08/01 02:52:17;;;;;;;5.30;1.60;;;;;17.80;97037.40;;;;111262;1248;41582;-70
2022/08/01 02:54:51;;;;;;;4.80;1.50;;;;;17.80;97039.40;;;;110893;1249;41267;-68
2022/08/01 02:57:24;;;;;;;5.70;1.70;;;;;17.80;97038.20;;;;111230;1249;41198;-69
2022/08/01 02:59:59;;;;;;;2.80;1.40;;;;;17.70;97042.20;;;;111148;1249;41191;-70
2022/08/01 03:02:31;;;;;;;3.10;1.50;;;;;17.70;97043.00;;;;111220;1249;41156;-69
2022/08/01 03:05:04;;;;;;;1.90;1.30;;;;;17.70;97040.60;;;;110953;1248;41123;-68
2022/08/01 03:07:36;;;;;;;3.00;1.40;;;;;17.70;97042.60;;;;111076;1248;41437;-70
2022/08/01 03:10:10;;;;;;;1.80;1.40;;;;;17.74;97039.00;;;;111236;1249;41161;-69
2022/08/01 03:12:43;;;;;;;2.00;1.40;;;;;17.76;97034.00;;;;111186;1248;42372;-69
2022/08/01 03:15:14;;;;;;;1.70;1.20;;;;;17.80;97034.20;;;;111306;1248;41180;-68
2022/08/01 03:17:47;;;;;;;1.70;1.30;;;;;17.80;97033.60;;;;111202;1247;41174;-69
2022/08/01 03:20:18;;;;;;;1.40;1.20;;;;;17.80;97034.00;;;;111049;1251;41578;-68
2022/08/01 03:22:51;;;;;;;3.30;1.60;;;;;17.80;97037.00;;;;111188;1247;41493;-68
2022/08/01 03:25:22;;;;;;;4.40;2.00;;;;;17.80;97036.20;;;;111180;1248;41674;-68
2022/08/01 03:27:56;;;;;;;2.30;1.50;;;;;17.80;97034.40;;;;111191;1248;42193;-70
2022/08/01 03:30:28;;;;;;;2.40;1.60;;;;;17.78;97036.80;;;;111258;1248;41613;-68
2022/08/01 03:32:58;;;;;;;3.00;1.60;;;;;17.78;97037.40;;;;111185;1247;41135;-70
2022/08/01 03:35:30;;;;;;;2.90;1.70;;;;;17.80;97040.80;;;;111177;1248;41612;-70
2022/08/01 03:38:01;;;;;;;3.00;1.50;;;;;17.80;97041.40;;;;111194;1247;41582;-70
2022/08/01 03:40:52;;;;;;;1.50;1.40;;;;;17.80;97046.40;;;;111164;1249;41159;-69
2022/08/01 03:43:41;;;;;;;2.90;1.30;;;;;17.88;97050.40;;;;111289;1249;41155;-69
2022/08/01 03:46:29;;;;;;;2.00;1.40;;;;;17.90;97053.60;;;;111264;1247;41256;-69
2022/08/01 03:49:04;;;;;;;2.40;1.40;;;;;17.90;97054.40;;;;111151;1251;41177;-69
2022/08/01 03:51:34;;;;;;;2.30;1.50;;;;;17.90;97058.00;;;;111143;1249;41166;-69
2022/08/01 03:54:05;;;;;;;2.00;1.50;;;;;17.90;97056.20;;;;111226;1247;41165;-69
2022/08/01 03:56:36;;;;;;;2.00;1.40;;;;;17.90;97053.60;;;;111190;1247;42362;-69
2022/08/01 03:59:06;;;;;;;2.50;1.50;;;;;17.90;97056.60;;;;111167;1248;41522;-69
2022/08/01 04:01:36;;;;;;;2.10;1.40;;;;;17.90;97057.80;;;;111265;1247;41227;-69
2022/08/01 04:04:06;;;;;;;2.20;1.60;;;;;17.82;97056.60;;;;111232;1248;42217;-69
2022/08/01 04:06:40;;;;;;;2.60;1.60;;;;;17.80;97060.20;;;;111270;1247;41455;-69
2022/08/01 04:09:14;;;;;;;3.00;1.70;;;;;17.80;97060.20;;;;110957;1250;41731;-70
2022/08/01 04:11:45;;;;;;;4.20;2.10;;;;;17.72;97061.00;;;;110906;1247;41606;-71
2022/08/01 04:14:17;;;;;;;3.40;1.70;;;;;17.70;97060.00;;;;111198;1248;41305;-68
2022/08/01 04:16:47;;;;;;;2.40;1.50;;;;;17.70;97061.40;;;;111153;1247;41963;-70
2022/08/01 04:19:18;;;;;;;2.70;1.70;;;;;17.76;97059.20;;;;111117;1249;41141;-71
2022/08/01 04:21:48;;;;;;;4.70;1.90;;;;;17.80;97057.80;;;;111214;1248;41194;-71
2022/08/01 04:24:23;;;;;;;3.40;2.00;;;;;17.80;97058.00;;;;111185;1250;41186;-70
2022/08/01 04:26:54;;;;;;;3.30;1.80;;;;;17.80;97062.00;;;;111307;1248;41262;-70
2022/08/01 04:29:25;;;;;;;6.50;1.60;;;;;17.80;97057.60;;;;110948;1249;41925;-70
2022/08/01 04:31:59;;;;;;;4.20;1.70;;;;;17.84;97056.60;;;;111135;1248;41895;-70
2022/08/01 04:34:32;;;;;;;2.60;1.60;;;;;17.94;97059.20;;;;111141;1248;41232;-70
2022/08/01 04:37:02;;;;;;;1.90;1.40;;;;;18.10;97055.20;;;;111347;1247;41341;-70
2022/08/01 04:39:36;;;;;;;2.20;1.50;;;;;18.20;97060.40;;;;111036;1249;41172;-72
2022/08/01 04:42:19;;;;;;;1.80;1.40;;;;;18.30;97064.20;;;;111195;1249;41374;-70
2022/08/01 04:44:54;;;;;;;2.90;1.60;;;;;18.40;97067.00;;;;111240;1247;41145;-69
2022/08/01 04:47:25;;;;;;;2.00;1.50;;;;;18.50;97067.40;;;;111401;1247;41882;-70
2022/08/01 04:49:56;;;;;;;1.90;1.50;;;;;18.50;97064.00;;;;111091;1249;41165;-70
2022/08/01 04:52:35;;;;;;;3.60;1.70;;;;;18.50;97066.80;;;;111203;1250;41165;-71
2022/08/01 04:55:09;;;;;;;2.30;1.60;;;;;18.50;97068.60;;;;111033;1250;41171;-71
2022/08/01 04:57:43;;;;;;;2.40;1.50;;;;;18.52;97067.60;;;;111499;1248;41206;-69
2022/08/01 05:00:13;;;;;;;3.10;1.70;;;;;18.60;97068.00;;;;111304;1250;41142;-68
2022/08/01 05:02:46;;;;;;;4.00;1.80;;;;;18.60;97066.00;;;;111206;1247;41641;-68
2022/08/01 05:05:16;;;;;;;3.30;1.80;;;;;18.60;97064.40;;;;111073;1250;41911;-70
2022/08/01 05:07:46;;;;;;;3.20;1.70;;;;;18.60;97064.40;;;;111043;1250;40975;-70
2022/08/01 05:10:16;;;;;;;2.50;1.60;;;;;18.60;97068.20;;;;110795;1249;41128;-69
2022/08/01 05:12:46;;;;;;;4.80;1.80;;;;;18.60;97069.40;;;;111305;1248;41143;-70
2022/08/01 05:15:16;;;;;;;3.00;1.70;;;;;18.60;97070.00;;;;111052;1249;42403;-69
2022/08/01 05:17:46;;;;;;;5.30;2.20;;;;;18.60;97076.00;;;;111217;1247;41156;-70
2022/08/01 05:20:16;;;;;;;3.30;1.80;;;;;18.60;97076.80;;;;111062;1250;41140;-69
2022/08/01 05:22:50;;;;;;;6.40;2.30;;;;;18.60;97081.20;;;;111445;1247;41195;-70
2022/08/01 05:25:22;;;;;;;5.30;2.30;;;;;18.54;97078.80;;;;111041;1250;42139;-71
2022/08/01 05:28:00;;;;;;;4.10;1.90;;;;;18.40;97081.80;;;;111147;1248;41258;-70
2022/08/01 05:30:30;;;;;;;7.20;2.80;;;;;18.30;97087.20;;;;110919;1249;42257;-70
2022/08/01 05:32:59;;;;;;;7.10;2.60;;;;;18.20;97085.60;;;;111240;1248;41155;-70
2022/08/01 05:35:28;;;;;;;5.90;2.50;;;;;18.10;97086.60;;;;111137;1248;41155;-69
2022/08/01 05:38:16;;;;;;;4.30;2.10;;;;;18.00;97086.40;;;;111158;1248;41720;-68
2022/08/01 05:40:45;;;;;;;6.90;2.80;;;;;17.98;97091.00;;;;111103;1248;42375;-68
2022/08/01 05:43:14;;;;;;;6.00;2.40;;;;;17.90;97090.60;;;;111180;1248;41525;-71
2022/08/01 05:45:45;;;;;;;4.30;2.20;;;;;17.80;97095.20;;;;111333;1248;41466;-69
2022/08/01 05:48:14;;;;;;;7.10;2.20;;;;;17.70;97095.20;;;;111227;1247;41502;-71
2022/08/01 05:50:43;;;;;;;4.70;2.00;;;;;17.70;97095.40;;;;110985;1248;41728;-70
2022/08/01 05:53:12;;;;;;;5.70;2.20;;;;;17.80;97093.60;;;;111189;1248;41604;-71
2022/08/01 05:55:41;;;;;;;5.20;1.90;;;;;17.80;97096.40;;;;111114;1247;41254;-70
2022/08/01 05:58:10;;;;;;;2.60;1.60;;;;;17.80;97095.40;;;;111440;1246;41951;-69
2022/08/01 06:00:40;;;;;;;4.50;1.90;;;;;17.84;97098.20;;;;111267;1247;41145;-70
2022/08/01 06:03:08;;;;;;;4.50;1.70;;;;;17.90;97095.20;;;;111353;1247;41183;-70
2022/08/01 06:05:37;;;;;;;2.90;1.50;;;;;17.90;97098.80;;;;111238;1247;41164;-70
2022/08/01 06:08:06;;;;;;;1.40;1.30;;;;;17.98;97094.40;;;;111322;1247;41989;-70
2022/08/01 06:10:35;;;;;;;3.00;1.40;;;;;18.00;97095.80;;;;111249;1247;41141;-70
2022/08/01 06:13:04;;;;;;;3.60;1.60;;;;;18.10;97094.40;;;;111218;1247;41369;-72
2022/08/01 06:15:33;;;;;;;2.90;1.50;;;;;18.30;97094.60;;;;111342;1247;41730;-69
2022/08/01 06:18:03;;;;;;;2.90;1.50;;;;;18.30;97092.00;;;;111262;1247;42580;-69
2022/08/01 06:20:32;;;;;;;3.30;1.60;;;;;18.38;97090.80;;;;111251;1247;41991;-69
2022/08/01 06:23:01;;;;;;;3.30;1.60;;;;;18.40;97098.00;;;;111306;1247;41150;-70
2022/08/01 06:25:42;;;;;;;2.50;1.60;;;;;18.50;97100.20;;;;111103;1247;41166;-70
2022/08/01 06:28:11;;;;;;;3.30;1.80;;;;;18.54;97096.40;;;;111223;1247;41238;-70
2022/08/01 06:30:40;;;;;;;2.30;1.40;;;;;18.60;97094.40;;;;110914;1247;41754;-71
2022/08/01 06:33:09;;;;;;;2.50;1.50;;;;;18.62;97097.00;;;;111483;1247;41255;-71
2022/08/01 06:35:37;;;;;;;3.10;1.60;;;;;18.70;97097.20;;;;111234;1247;42365;-71
2022/08/01 06:38:06;;;;;;;2.20;1.50;;;;;18.70;97093.20;;;;111211;1247;41479;-71
2022/08/01 06:40:35;;;;;;;6.70;2.00;;;;;18.70;97096.20;;;;111253;1247;41186;-72
2022/08/01 06:43:04;;;;;;;3.50;1.80;;;;;18.70;97098.00;;;;111277;1247;41429;-71
2022/08/01 06:45:33;;;;;;;4.70;1.90;;;;;18.64;97095.40;;;;111210;1248;41716;-71
2022/08/01 06:48:02;;;;;;;3.20;1.70;;;;;18.70;97093.00;;;;111233;1247;41241;-71
2022/08/01 06:50:31;;;;;;;3.20;1.70;;;;;18.70;97091.80;;;;111267;1248;41267;-69
2022/08/01 06:53:01;;;;;;;3.30;1.80;;;;;18.74;97089.40;;;;111217;1247;42009;-70
2022/08/01 06:55:30;;;;;;;2.20;1.50;;;;;18.70;97090.60;;;;111080;1247;41611;-70
2022/08/01 06:57:58;;;;;;;2.00;1.40;;;;;18.70;97093.00;;;;111226;1247;42526;-70
2022/08/01 07:00:27;;;;;;;2.60;1.50;;;;;18.70;97091.60;;;;110915;1250;41732;-70
2022/08/01 07:02:59;;;;;;;3.20;1.80;;;;;18.80;97096.40;;;;111186;1247;41264;-69
2022/08/01 07:05:30;;;;;;;;;;;;;18.80;97094.60;;;;111151;1246;41189;-70
2022/08/01 07:07:59;;;;;;;2.60;1.60;;;;;18.70;97094.00;;;;111122;1247;41899;-70
2022/08/01 07:10:28;;;;;;;3.70;1.80;;;;;18.70;97097.40;;;;111086;1248;41169;-70
2022/08/01 07:12:56;;;;;;;2.90;1.50;;;;;18.70;97094.40;;;;111301;1247;41257;-70
2022/08/01 07:15:26;;;;;;;3.20;1.70;;;;;18.78;97094.00;;;;111225;1247;41260;-70
2022/08/01 07:17:56;;;;;;;2.90;1.60;;;;;18.80;97095.00;;;;111238;1245;41595;-69
2022/08/01 07:20:25;;;;;;;2.70;1.60;;;;;18.90;97092.80;;;;111248;1247;41230;-70
2022/08/01 07:22:54;;;;;;;4.60;2.10;;;;;19.00;97093.00;;;;111205;1247;41182;-70
2022/08/01 07:25:23;;;;;;;4.10;2.00;;;;;19.20;97093.40;;;;111274;1247;42359;-71
2022/08/01 07:27:52;;;;;;;2.70;1.60;;;;;19.40;97094.80;;;;111292;1247;41139;-72
2022/08/01 07:30:21;;;;;;;7.60;2.00;;;;;19.68;97093.00;;;;111057;1247;41521;-70
2022/08/01 07:32:49;;;;;;;5.80;2.30;;;;;20.00;97090.60;;;;111109;1247;41277;-71
2022/08/01 07:35:19;;;;;;;3.10;1.80;;;;;20.20;97089.00;;;;111171;1248;41707;-72
2022/08/01 07:37:47;;;;;;;3.40;1.70;;;;;20.46;97090.80;;;;111133;1248;41127;-71
2022/08/01 07:40:17;;;;;;;3.50;1.70;;;;;20.70;97087.20;;;;111080;1248;42212;-71
2022/08/01 07:42:46;;;;;;;5.40;2.60;;;;;20.80;97084.00;;;;111128;1247;41808;-71
2022/08/01 07:45:16;;;;;;;4.40;1.90;;;;;20.90;97079.60;;;;111161;1248;41829;-72
2022/08/01 07:47:45;;;;;;;3.00;1.60;;;;;21.20;97075.60;;;;111083;1248;42376;-72
2022/08/01 07:50:13;;;;;;;3.60;1.60;;;;;21.78;97081.40;;;;111100;1247;41146;-72
2022/08/01 07:52:44;;;;;;;3.90;1.90;;;;;22.46;97077.00;;;;111413;1247;41258;-71
2022/08/01 07:55:14;;;;;;;6.40;1.70;;;;;22.96;97080.20;;;;111114;1250;41743;-73
2022/08/01 07:57:45;;;;;;;3.00;1.60;;;;;23.00;97081.40;;;;111240;1247;41604;-72
2022/08/01 08:00:16;;;;;;;3.20;1.50;;;;;23.10;97079.80;;;;111345;1245;41768;-71
2022/08/01 08:02:47;;;;;;;3.50;1.50;;;;;23.10;97080.40;;;;111179;1247;41267;-73
2022/08/01 08:05:19;;;;;;;2.80;1.50;;;;;23.10;97084.00;;;;111117;1248;41211;-73
2022/08/01 08:08:11;;;;;;;2.90;1.70;;;;;23.10;97091.60;;;;111087;1250;41476;-71
2022/08/01 08:10:41;;;;;;;2.50;1.50;;;;;23.00;97090.00;;;;111159;1250;41129;-72
2022/08/01 08:13:16;;;;;;;2.50;1.60;;;;;22.92;97091.60;;;;110820;1251;42161;-75
2022/08/01 08:15:55;;;;;;;6.10;1.70;;;;;22.90;97091.60;;;;110556;1251;41142;-73
2022/08/01 08:18:32;;;;;;;3.00;1.40;;;;;22.80;97092.40;;;;111056;1250;41266;-72
2022/08/01 08:21:15;;;;;;;2.10;1.50;;;;;22.80;97096.80;;;;110738;1253;41154;-72
2022/08/01 08:26:38;;;;;;;3.30;1.70;;;;;22.80;97109.40;;;;110646;1251;41291;-71
2022/08/01 08:29:07;;;;;;;9.30;1.80;;;;;22.40;97110.20;;;;110883;1250;41275;-72
2022/08/01 08:31:38;;;;;;;4.20;1.80;;;;;22.06;97110.40;;;;110877;1251;41155;-70
2022/08/01 08:34:20;;;;;;;2.70;1.60;;;;;21.64;97113.40;;;;111110;1248;42335;-70
2022/08/01 08:36:51;;;;;;;5.20;1.70;;;;;21.30;97118.00;;;;111027;1248;41159;-72
2022/08/01 08:39:23;;;;;;;3.20;1.70;;;;;21.10;97121.80;;;;110760;1247;41128;-71
2022/08/01 08:42:05;;;;;;;3.60;1.80;;;;;20.98;97122.20;;;;110611;1251;41278;-70
2022/08/01 08:44:40;;;;;;;3.00;1.60;;;;;20.80;97123.00;;;;110592;1250;41170;-72
2022/08/01 08:47:23;;;;;;;4.10;1.90;;;;;20.80;97124.40;;;;110901;1248;41157;-72
2022/08/01 08:49:57;;;;;;;3.70;1.90;;;;;21.10;97128.20;;;;110760;1250;41142;-71
2022/08/01 08:52:30;;;;;;;1.70;1.40;;;;;21.56;97122.40;;;;110939;1250;41611;-71
2022/08/01 08:55:04;;;;;;;2.60;1.60;;;;;21.80;97125.00;;;;111089;1248;41159;-71
2022/08/01 08:57:45;;;;;;;3.40;1.70;;;;;21.80;97129.40;;;;110609;1250;41613;-71
2022/08/01 09:00:22;;;;;;;2.20;1.50;;;;;21.64;97128.40;;;;110926;1250;41161;-71
2022/08/01 09:02:55;;;;;;;3.40;1.50;;;;;21.40;97133.60;;;;110896;1250;41152;-68
2022/08/01 09:05:32;;;;;;;1.50;1.30;;;;;21.30;97135.00;;;;110867;1249;41711;-73
2022/08/01 09:08:08;;;;;;;2.30;1.30;;;;;21.28;97134.20;;;;111077;1248;41187;-71
2022/08/01 09:10:37;;;;;;;;;;;;;21.30;97136.40;;;;111231;1247;41253;-72
2022/08/01 09:13:17;;;;;;;1.40;1.30;;;;;21.20;97136.20;;;;111133;1248;41150;-67
2022/08/01 09:15:54;;;;;;;2.10;1.30;;;;;21.10;97139.00;;;;111129;1250;41536;-69
2022/08/01 09:18:40;;;;;;;1.30;1.20;;;;;21.16;97139.40;;;;110649;1251;41606;-72
2022/08/01 09:21:28;;;;;;;1.40;1.30;;;;;21.20;97138.40;;;;110822;1249;41161;-73
2022/08/01 09:24:05;;;;;;;1.90;1.30;;;;;21.20;97142.40;;;;111094;1248;41283;-71
2022/08/01 09:26:37;;;;;;;1.60;1.40;;;;;21.20;97135.40;;;;110978;1248;41127;-71
2022/08/01 09:29:18;;;;;;;2.10;1.20;;;;;21.20;97133.40;;;;111101;1247;41171;-68
2022/08/01 09:32:06;;;;;;;2.60;1.40;;;;;21.32;97139.20;;;;111126;1247;41596;-72
2022/08/01 09:34:49;;;;;;;1.30;1.20;;;;;21.40;97134.80;;;;110779;1247;41257;-74
2022/08/01 09:37:33;;;;;;;1.40;1.10;;;;;21.50;97132.00;;;;111236;1247;41269;-71
2022/08/01 09:40:07;;;;;;;2.20;1.50;;;;;21.80;97131.40;;;;110942;1248;42217;-70
2022/08/01 09:42:37;;;;;;;1.80;1.40;;;;;22.10;97127.80;;;;111097;1247;41154;-71
2022/08/01 09:45:07;;;;;;;1.70;1.40;;;;;22.30;97126.20;;;;111253;1247;41713;-71
2022/08/01 09:47:40;;;;;;;2.30;1.40;;;;;22.42;97123.80;;;;111012;1248;41196;-69
2022/08/01 09:50:10;;;;;;;2.20;1.40;;;;;22.50;97125.60;;;;111175;1247;41715;-69
2022/08/01 09:52:55;;;;;;;2.80;1.50;;;;;22.50;97131.20;;;;111089;1247;41968;-68
2022/08/01 09:55:28;;;;;;;1.90;1.30;;;;;22.30;97132.00;;;;111126;1247;41714;-68
2022/08/01 09:58:00;;;;;;;2.30;1.40;;;;;22.20;97133.60;;;;111212;1246;41152;-70
2022/08/01 10:00:31;;;;;;;2.20;1.40;;;;;22.00;97131.60;;;;110790;1247;41618;-70
2022/08/01 10:03:25;;;;;;;2.50;1.40;;;;;21.90;97128.40;;;;111016;1247;41135;-70
2022/08/01 10:05:58;;;;;;;3.10;1.60;;;;;21.80;97130.00;;;;110822;1249;41170;-71
2022/08/01 10:08:27;;;;;;;4.10;1.70;;;;;21.78;97128.00;;;;111304;1247;41303;-71
2022/08/01 10:11:17;;;;;;;2.70;1.60;;;;;21.80;97128.80;;;;111183;1247;41611;-70
2022/08/01 10:13:48;;;;;;;4.70;1.80;;;;;22.00;97129.80;;;;111129;1248;41423;-71
2022/08/01 10:16:18;;;;;;;;;;;;;22.14;97131.60;;;;111203;1247;41147;-70
2022/08/01 10:18:51;;;;;;;3.10;1.70;;;;;22.30;97128.20;;;;111030;1249;41240;-70
2022/08/01 10:21:21;;;;;;;1.60;1.40;;;;;22.40;97131.60;;;;111180;1247;42392;-72
2022/08/01 10:24:12;;;;;;;3.40;1.60;;;;;22.54;97134.80;;;;111159;1247;41295;-69
2022/08/01 10:26:41;;;;;;;;;;;;;22.60;97133.80;;;;111382;1247;41174;-70
2022/08/01 10:29:16;;;;;;;4.00;1.90;;;;;22.50;97130.00;;;;110895;1248;41256;-69
2022/08/01 10:32:09;;;;;;;3.50;1.80;;;;;22.46;97128.40;;;;110991;1249;41901;-71
2022/08/01 10:34:43;;;;;;;2.10;1.60;;;;;22.70;97129.20;;;;111223;1247;41828;-69
2022/08/01 10:37:20;;;;;;;1.50;1.30;;;;;22.70;97135.20;;;;110928;1250;41208;-69
2022/08/01 10:39:59;;;;;;;1.30;1.20;;;;;22.80;97133.20;;;;110830;1250;41269;-71
2022/08/01 10:43:00;;;;;;;1.40;1.20;;;;;23.04;97133.20;;;;111032;1248;41266;-69
2022/08/01 10:45:49;;;;;;;1.90;1.30;;;;;23.30;97125.00;;;;110803;1250;41146;-70
2022/08/01 10:48:35;;;;;;;1.20;1.10;;;;;23.40;97126.20;;;;110958;1247;41199;-71
2022/08/01 10:51:20;;;;;;;1.40;1.30;;;;;23.50;97122.60;;;;110928;1248;41834;-70
2022/08/01 10:54:26;;;;;;;1.60;1.30;;;;;23.50;97120.60;;;;111169;1248;41246;-69
2022/08/01 10:57:06;;;;;;;3.00;1.30;;;;;23.44;97121.80;;;;110900;1250;42852;-71
2022/08/01 10:59:55;;;;;;;2.90;1.40;;;;;23.50;97118.40;;;;110913;1246;41130;-70
2022/08/01 11:02:43;;;;;;;1.10;1.10;;;;;23.70;97119.00;;;;110964;1248;41263;-71
2022/08/01 11:05:30;;;;;;;1.40;1.00;;;;;23.60;97119.60;;;;110925;1248;42507;-70
2022/08/01 11:08:25;;;;;;;1.60;1.20;;;;;23.40;97116.00;;;;110900;1247;41191;-70
2022/08/01 11:11:05;;;;;;;1.10;1.00;;;;;23.18;97121.80;;;;110759;1252;41192;-70
2022/08/01 11:13:58;;;;;;;1.20;1.00;;;;;23.00;97118.80;;;;110942;1248;41291;-70
2022/08/01 11:16:36;;;;;;;;;;;;;23.00;97120.80;;;;111210;1247;41801;-71
2022/08/01 11:19:11;;;;;;;1.10;0.90;;;;;22.86;97118.20;;;;111175;1248;41290;-71
2022/08/01 11:21:57;;;;;;;1.10;1.00;;;;;22.90;97113.80;;;;111008;1248;41120;-69
2022/08/01 11:24:53;;;;;;;1.10;1.00;;;;;23.00;97106.20;;;;111187;1247;41176;-70
2022/08/01 11:27:28;;;;;;;4.10;1.10;;;;;23.10;97109.80;;;;111258;1247;41141;-71
2022/08/01 11:30:11;;;;;;;1.20;1.10;;;;;23.48;97099.20;;;;111218;1248;41552;-70
2022/08/01 11:32:57;;;;;;;1.30;1.20;;;;;24.12;97100.60;;;;111062;1247;40770;-71
2022/08/01 11:36:16;;;;;;;1.30;1.10;;;;;25.00;97091.20;;;;111035;1248;42422;-70
2022/08/01 11:38:59;;;;;;;;;;;;;25.92;97097.60;;;;110861;1248;41239;-69
2022/08/01 11:41:35;;;;;;;3.20;1.30;;;;;26.24;97090.80;;;;111170;1247;41243;-70
2022/08/01 11:44:19;;;;;;;1.10;1.10;;;;;26.34;97087.60;;;;111187;1247;41120;-72
2022/08/01 11:47:09;;;;;;;3.00;1.20;;;;;26.52;97080.40;;;;111160;1247;41171;-70
2022/08/01 11:49:44;;;;;;;2.10;1.20;;;;;26.70;97083.00;;;;111355;1247;41476;-71
2022/08/01 11:52:35;;;;;;;1.10;1.00;;;;;26.90;97078.60;;;;111176;1246;41135;-72
2022/08/01 11:55:08;;;;;;;1.70;1.20;;;;;27.66;97080.60;;;;111222;1247;41143;-70
2022/08/01 11:57:39;;;;;;;1.20;1.00;;;;;28.08;97080.40;;;;111002;1248;41967;-70
2022/08/01 12:00:19;;;;;;;;;;;;;28.74;97067.20;;;;111159;1247;41243;-70
2022/08/01 12:03:00;;;;;;;1.80;1.20;;;;;30.50;97067.00;;;;111199;1248;41046;-71
2022/08/01 12:05:36;;;;;;;1.60;1.10;;;;;31.12;97066.80;;;;111253;1247;41131;-71
2022/08/01 12:08:11;;;;;;;2.30;1.30;;;;;32.42;97060.60;;;;110977;1248;41149;-72
2022/08/01 12:10:49;;;;;;;1.00;1.00;;;;;33.30;97053.40;;;;111179;1247;41270;-72
2022/08/01 12:13:20;;;;;;;1.20;1.10;;;;;32.92;97062.00;;;;111126;1247;42042;-73
2022/08/01 12:15:51;;;;;;;1.40;1.20;;;;;33.42;97057.00;;;;111192;1247;41155;-70
2022/08/01 12:18:24;;;;;;;2.10;1.20;;;;;33.28;97057.20;;;;111289;1245;41971;-74
2022/08/01 12:21:03;;;;;;;1.40;0.90;;;;;32.68;97055.20;;;;111286;1248;41202;-72
2022/08/01 12:23:33;;;;;;;0.80;0.80;;;;;31.96;97073.00;;;;110761;1250;40764;-71
2022/08/01 12:26:03;;;;;;;1.90;1.20;;;;;31.72;97071.20;;;;111276;1247;41635;-70
2022/08/01 12:28:39;;;;;;;1.50;1.10;;;;;31.60;97073.20;;;;111121;1247;42458;-70
2022/08/01 12:31:08;;;;;;;1.10;1.00;;;;;31.20;97077.40;;;;111008;1249;41250;-71
2022/08/01 12:33:36;;;;;;;0.90;0.90;;;;;30.44;97083.00;;;;111040;1248;41242;-71
2022/08/01 12:36:06;;;;;;;0.80;0.80;;;;;30.00;97088.40;;;;111038;1247;41310;-70
2022/08/01 12:38:35;;;;;;;1.90;1.00;;;;;29.66;97090.80;;;;111066;1247;41145;-70
2022/08/01 12:41:04;;;;;;;1.90;1.00;;;;;29.12;97095.60;;;;111047;1247;42049;-70
2022/08/01 12:43:34;;;;;;;1.10;1.00;;;;;28.78;97095.60;;;;111236;1247;41173;-70
2022/08/01 12:46:02;;;;;;;;;;;;;28.50;97094.20;;;;111152;1247;41155;-70
2022/08/01 12:48:31;;;;;;;2.10;1.30;;;;;28.10;97093.20;;;;111069;1247;41149;-70
2022/08/01 12:51:02;;;;;;;1.50;1.10;;;;;27.82;97096.40;;;;111094;1247;41142;-70